createdAt,value
2019-04-21T09:39:08.738Z,1019.70
2019-04-21T09:40:01.010Z,1019.69
2019-04-21T09:40:59.730Z,1019.73
2019-04-21T09:42:02.802Z,1019.67
2019-04-21T09:43:04.810Z,1019.63
2019-04-21T09:44:00.886Z,1019.62
2019-04-21T09:45:02.643Z,1019.59
2019-04-21T09:45:59.201Z,1019.59
2019-04-21T09:47:01.993Z,1019.56
2019-04-21T09:48:04.509Z,1019.59
2019-04-21T09:49:02.687Z,1019.62
2019-04-21T09:50:01.178Z,1019.56
2019-04-21T09:50:59.554Z,1019.54
2019-04-21T09:51:59.829Z,1019.59
2019-04-21T09:53:05.456Z,1019.56
2019-04-21T09:54:07.705Z,1019.55
2019-04-21T09:55:04.785Z,1019.44
2019-04-21T09:56:01.729Z,1019.46
2019-04-21T09:57:03.228Z,1019.41
2019-04-21T09:58:09.971Z,1019.42
2019-04-21T09:59:07.954Z,1019.39
2019-04-21T10:00:04.933Z,1019.41
2019-04-21T10:01:08.412Z,1019.40
2019-04-21T10:02:06.362Z,1019.41
2019-04-21T10:03:03.765Z,1019.34
2019-04-21T10:04:01.757Z,1019.31
2019-04-21T10:04:57.501Z,1019.33
2019-04-21T10:05:58.672Z,1019.29
2019-04-21T10:06:58.647Z,1019.34
2019-04-21T10:07:57.463Z,1019.31
2019-04-21T10:09:02.729Z,1019.32
2019-04-21T10:09:58.110Z,1019.29
2019-04-21T10:10:57.030Z,1019.30
2019-04-21T10:11:56.998Z,1019.28
2019-04-21T10:12:56.805Z,1019.26
2019-04-21T10:13:56.715Z,1019.25
2019-04-21T10:14:57.405Z,1019.20
2019-04-21T10:15:56.546Z,1019.18
2019-04-21T10:16:58.791Z,1019.18
2019-04-21T10:17:56.375Z,1019.18
2019-04-21T10:18:56.751Z,1019.19
2019-04-21T10:19:56.235Z,1019.14
2019-04-21T10:20:56.966Z,1019.12
2019-04-21T10:21:56.542Z,1019.09
2019-04-21T10:22:57.205Z,1019.07
2019-04-21T10:23:55.859Z,1019.09
2019-04-21T10:24:56.421Z,1019.07
2019-04-21T10:25:56.718Z,1019.02
2019-04-21T10:26:55.604Z,1019.05
2019-04-21T10:27:56.949Z,1019.07
2019-04-21T10:28:58.849Z,1019.07
2019-04-21T10:29:56.106Z,1019.04
2019-04-21T10:30:56.401Z,1018.99
2019-04-21T10:31:55.184Z,1018.98
2019-04-21T10:32:56.437Z,1019.06
2019-04-21T10:33:55.015Z,1019.05
2019-04-21T10:34:55.171Z,1019.01
2019-04-21T10:35:55.135Z,1018.99
2019-04-21T10:36:55.341Z,1018.96
2019-04-21T10:38:06.783Z,1018.88
2019-04-21T10:38:55.734Z,1018.86
2019-04-21T10:39:55.717Z,1018.81
2019-04-21T10:40:54.427Z,1018.74
2019-04-21T10:41:55.246Z,1018.84
2019-04-21T10:42:54.278Z,1018.88
2019-04-21T10:43:55.409Z,1018.78
2019-04-21T10:44:54.829Z,1018.81
2019-04-21T10:45:54.837Z,1018.74
2019-04-21T10:46:54.538Z,1018.76
2019-04-21T10:47:54.849Z,1018.74
2019-04-21T10:48:54.823Z,1018.72
2019-04-21T10:49:54.822Z,1018.73
2019-04-21T10:50:54.828Z,1018.76
2019-04-21T10:51:53.484Z,1018.69
2019-04-21T10:52:53.396Z,1018.69
2019-04-21T10:53:54.307Z,1018.66
2019-04-21T10:55:12.496Z,1018.64
2019-04-21T10:56:05.851Z,1018.62
2019-04-21T10:56:53.044Z,1018.64
2019-04-21T10:57:52.955Z,1018.65
2019-04-21T10:58:54.038Z,1018.57
2019-04-21T10:59:54.546Z,1018.55
2019-04-21T11:00:52.796Z,1018.50
2019-04-21T11:01:52.731Z,1018.48
2019-04-21T11:02:52.829Z,1018.46
2019-04-21T11:03:53.126Z,1018.48
2019-04-21T11:04:52.333Z,1018.47
2019-04-21T11:05:52.621Z,1018.43
2019-04-21T11:06:52.680Z,1018.35
2019-04-21T11:08:06.793Z,1018.35
2019-04-21T11:08:55.361Z,1018.35
2019-04-21T11:09:51.924Z,1018.28
2019-04-21T11:10:51.947Z,1018.34
2019-04-21T11:11:53.213Z,1018.33
2019-04-21T11:12:52.676Z,1018.27
2019-04-21T11:13:52.539Z,1018.25
2019-04-21T11:14:51.510Z,1018.22
2019-04-21T11:15:51.331Z,1018.20
2019-04-21T11:16:52.938Z,1018.16
2019-04-21T11:17:52.234Z,1018.16
2019-04-21T11:18:51.642Z,1018.14
2019-04-21T11:19:50.960Z,1018.16
2019-04-21T11:20:51.129Z,1018.18
2019-04-21T11:21:50.776Z,1018.15
2019-04-21T11:22:51.364Z,1018.11
2019-04-21T11:23:50.595Z,1018.14
2019-04-21T11:24:51.120Z,1018.12
2019-04-21T11:25:51.636Z,1018.06
2019-04-21T11:26:51.856Z,1018.09
2019-04-21T11:27:51.159Z,1018.03
2019-04-21T11:28:50.534Z,1018.06
2019-04-21T11:29:50.034Z,1018.05
2019-04-21T11:30:50.988Z,1018.03
2019-04-21T11:31:51.246Z,1017.99
2019-04-21T11:32:50.856Z,1017.97
2019-04-21T11:33:49.659Z,1017.95
2019-04-21T11:34:49.565Z,1017.98
2019-04-21T11:35:49.470Z,1017.99
2019-04-21T11:36:50.221Z,1018.01
2019-04-21T11:37:50.217Z,1017.93
2019-04-21T11:39:03.330Z,1017.94
2019-04-21T11:39:55.319Z,1017.89
2019-04-21T11:40:49.784Z,1017.92
2019-04-21T11:41:49.855Z,1017.93
2019-04-21T11:42:48.824Z,1017.91
2019-04-21T11:43:48.869Z,1017.86
2019-04-21T11:44:49.442Z,1017.82
2019-04-21T11:45:48.585Z,1017.84
2019-04-21T11:46:48.858Z,1017.82
2019-04-21T11:47:48.339Z,1017.82
2019-04-21T11:48:48.380Z,1017.78
2019-04-21T11:49:49.294Z,1017.79
2019-04-21T11:50:48.835Z,1017.76
2019-04-21T11:51:48.958Z,1017.77
2019-04-21T11:52:49.223Z,1017.76
2019-04-21T11:53:48.697Z,1017.74
2019-04-21T11:54:48.638Z,1017.72
2019-04-21T11:55:49.953Z,1017.71
2019-04-21T11:56:48.480Z,1017.68
2019-04-21T11:57:49.786Z,1017.69
2019-04-21T11:58:47.795Z,1017.65
2019-04-21T11:59:47.997Z,1017.66
2019-04-21T12:00:47.489Z,1017.65
2019-04-21T12:01:47.594Z,1017.65
2019-04-21T12:02:47.752Z,1017.62
2019-04-21T12:03:47.497Z,1017.62
2019-04-21T12:04:47.548Z,1017.61
2019-04-21T12:05:47.640Z,1017.61
2019-04-21T12:06:47.715Z,1017.63
2019-04-21T12:07:47.161Z,1017.56
2019-04-21T12:08:49.429Z,1017.62
2019-04-21T12:09:46.253Z,1017.59
2019-04-21T12:10:47.205Z,1017.58
2019-04-21T12:11:47.319Z,1017.56
2019-04-21T12:12:45.969Z,1017.53
2019-04-21T12:13:46.028Z,1017.55
2019-04-21T12:14:45.934Z,1017.51
2019-04-21T12:15:47.013Z,1017.45
2019-04-21T12:16:46.663Z,1017.45
2019-04-21T12:17:45.929Z,1017.42
2019-04-21T12:18:45.399Z,1017.43
2019-04-21T12:19:46.137Z,1017.39
2019-04-21T12:20:45.216Z,1017.38
2019-04-21T12:21:54.680Z,1017.42
2019-04-21T12:22:45.347Z,1017.41
2019-04-21T12:23:44.921Z,1017.43
2019-04-21T12:24:45.015Z,1017.41
2019-04-21T12:25:45.318Z,1017.37
2019-04-21T12:26:44.768Z,1017.37
2019-04-21T12:27:45.624Z,1017.37
2019-04-21T12:28:45.853Z,1017.34
2019-04-21T12:29:44.355Z,1017.33
2019-04-21T12:30:45.187Z,1017.34
2019-04-21T12:31:45.412Z,1017.33
2019-04-21T12:32:44.321Z,1017.30
2019-04-21T12:33:43.968Z,1017.31
2019-04-21T12:34:43.876Z,1017.25
2019-04-21T12:35:43.873Z,1017.25
2019-04-21T12:36:43.796Z,1017.22
2019-04-21T12:37:44.723Z,1017.23
2019-04-21T12:38:48.872Z,1017.22
2019-04-21T12:39:43.402Z,1017.15
2019-04-21T12:40:44.278Z,1017.16
2019-04-21T12:41:44.562Z,1017.12
2019-04-21T12:42:43.727Z,1017.11
2019-04-21T12:43:43.021Z,1017.07
2019-04-21T12:44:43.423Z,1017.07
2019-04-21T12:45:44.017Z,1017.11
2019-04-21T12:46:43.584Z,1017.06
2019-04-21T12:47:43.920Z,1017.01
2019-04-21T12:48:42.545Z,1017.00
2019-04-21T12:49:43.665Z,1017.02
2019-04-21T12:50:43.657Z,1016.99
2019-04-21T12:51:42.260Z,1016.99
2019-04-21T12:52:42.176Z,1016.98
2019-04-21T12:53:43.397Z,1016.97
2019-04-21T12:54:42.062Z,1016.96
2019-04-21T12:55:44.848Z,1017.01
2019-04-21T12:56:41.786Z,1016.92
2019-04-21T12:57:41.689Z,1016.87
2019-04-21T12:58:41.702Z,1016.86
2019-04-21T12:59:42.535Z,1016.83
2019-04-21T13:00:41.404Z,1016.82
2019-04-21T13:01:41.325Z,1016.79
2019-04-21T13:02:41.213Z,1016.82
2019-04-21T13:03:41.781Z,1016.80
2019-04-21T13:04:42.048Z,1016.85
2019-04-21T13:05:40.930Z,1016.78
2019-04-21T13:06:41.529Z,1016.72
2019-04-21T13:07:41.502Z,1016.74
2019-04-21T13:08:49.936Z,1016.78
2019-04-21T13:09:41.977Z,1016.74
2019-04-21T13:10:40.452Z,1016.71
2019-04-21T13:11:41.290Z,1016.76
2019-04-21T13:12:40.264Z,1016.69
2019-04-21T13:13:40.164Z,1016.66
2019-04-21T13:14:40.091Z,1016.67
2019-04-21T13:15:40.036Z,1016.65
2019-04-21T13:16:41.160Z,1016.67
2019-04-21T13:17:39.786Z,1016.62
2019-04-21T13:18:39.690Z,1016.66
2019-04-21T13:19:39.594Z,1016.66
2019-04-21T13:20:40.129Z,1016.62
2019-04-21T13:21:40.280Z,1016.60
2019-04-21T13:22:39.759Z,1016.59
2019-04-21T13:23:39.216Z,1016.59
2019-04-21T13:24:39.937Z,1016.62
2019-04-21T13:25:39.023Z,1016.59
2019-04-21T13:26:45.456Z,1016.60
2019-04-21T13:27:38.833Z,1016.55
2019-04-21T13:28:38.744Z,1016.52
2019-04-21T13:29:38.722Z,1016.47
2019-04-21T13:30:38.545Z,1016.53
2019-04-21T13:31:38.576Z,1016.47
2019-04-21T13:32:39.193Z,1016.45
2019-04-21T13:33:38.262Z,1016.40
2019-04-21T13:34:38.167Z,1016.44
2019-04-21T13:35:39.117Z,1016.39
2019-04-21T13:36:39.167Z,1016.40
2019-04-21T13:37:39.223Z,1016.43
2019-04-21T13:38:45.325Z,1016.41
2019-04-21T13:40:02.954Z,1016.41
2019-04-21T13:40:53.278Z,1016.35
2019-04-21T13:41:53.315Z,1016.37
2019-04-21T13:42:43.879Z,1016.36
2019-04-21T13:43:37.309Z,1016.34
2019-04-21T13:44:37.214Z,1016.35
2019-04-21T13:45:37.376Z,1016.34
2019-04-21T13:46:38.591Z,1016.32
2019-04-21T13:47:36.927Z,1016.29
2019-04-21T13:48:36.956Z,1016.25
2019-04-21T13:49:37.132Z,1016.24
2019-04-21T13:50:37.313Z,1016.22
2019-04-21T13:51:36.546Z,1016.22
2019-04-21T13:52:36.559Z,1016.20
2019-04-21T13:53:37.629Z,1016.16
2019-04-21T13:54:37.730Z,1016.13
2019-04-21T13:55:37.079Z,1016.12
2019-04-21T13:56:36.353Z,1016.09
2019-04-21T13:57:36.563Z,1016.09
2019-04-21T13:58:35.887Z,1016.11
2019-04-21T13:59:36.323Z,1016.09
2019-04-21T14:00:35.820Z,1016.09
2019-04-21T14:01:35.946Z,1016.04
2019-04-21T14:02:36.571Z,1016.09
2019-04-21T14:03:35.466Z,1016.05
2019-04-21T14:04:35.612Z,1016.01
2019-04-21T14:05:36.194Z,1016.03
2019-04-21T14:06:36.224Z,1016.00
2019-04-21T14:07:36.354Z,1015.99
2019-04-21T14:08:34.929Z,1015.99
2019-04-21T14:09:43.854Z,1015.98
2019-04-21T14:10:35.555Z,1015.95
2019-04-21T14:11:35.473Z,1015.92
2019-04-21T14:12:34.545Z,1015.94
2019-04-21T14:13:34.449Z,1015.93
2019-04-21T14:14:34.556Z,1015.87
2019-04-21T14:15:34.261Z,1015.90
2019-04-21T14:16:34.168Z,1015.88
2019-04-21T14:17:34.973Z,1015.85
2019-04-21T14:18:34.223Z,1015.83
2019-04-21T14:19:35.076Z,1015.84
2019-04-21T14:20:33.796Z,1015.88
2019-04-21T14:21:33.792Z,1015.84
2019-04-21T14:22:33.986Z,1015.80
2019-04-21T14:23:38.571Z,1015.83
2019-04-21T14:24:33.460Z,1015.84
2019-04-21T14:25:33.309Z,1015.86
2019-04-21T14:26:34.251Z,1015.85
2019-04-21T14:27:34.302Z,1015.84
2019-04-21T14:28:33.566Z,1015.84
2019-04-21T14:29:33.468Z,1015.81
2019-04-21T14:30:32.837Z,1015.87
2019-04-21T14:31:32.741Z,1015.86
2019-04-21T14:32:33.746Z,1015.88
2019-04-21T14:33:32.550Z,1015.83
2019-04-21T14:34:32.455Z,1015.81
2019-04-21T14:35:32.818Z,1015.82
2019-04-21T14:36:32.696Z,1015.85
2019-04-21T14:37:32.881Z,1015.78
2019-04-21T14:38:32.339Z,1015.79
2019-04-21T14:39:32.487Z,1015.77
2019-04-21T14:40:33.728Z,1015.80
2019-04-21T14:41:32.562Z,1015.77
2019-04-21T14:42:31.974Z,1015.77
2019-04-21T14:43:32.098Z,1015.78
2019-04-21T14:44:31.505Z,1015.72
2019-04-21T14:45:32.532Z,1015.75
2019-04-21T14:46:31.315Z,1015.74
2019-04-21T14:47:31.516Z,1015.74
2019-04-21T14:48:31.133Z,1015.71
2019-04-21T14:49:31.127Z,1015.75
2019-04-21T14:50:32.363Z,1015.69
2019-04-21T14:51:31.632Z,1015.67
2019-04-21T14:52:30.882Z,1015.65
2019-04-21T14:53:31.735Z,1015.58
2019-04-21T14:54:30.966Z,1015.60
2019-04-21T14:55:31.188Z,1015.59
2019-04-21T14:56:31.264Z,1015.63
2019-04-21T14:57:31.437Z,1015.63
2019-04-21T14:58:30.852Z,1015.51
2019-04-21T14:59:31.020Z,1015.57
2019-04-21T15:00:31.288Z,1015.57
2019-04-21T15:01:29.954Z,1015.55
2019-04-21T15:02:29.913Z,1015.54
2019-04-21T15:03:29.956Z,1015.59
2019-04-21T15:04:29.619Z,1015.54
2019-04-21T15:05:29.509Z,1015.52
2019-04-21T15:06:29.543Z,1015.55
2019-04-21T15:07:29.329Z,1015.56
2019-04-21T15:08:29.223Z,1015.51
2019-04-21T15:09:29.454Z,1015.48
2019-04-21T15:10:32.175Z,1015.49
2019-04-21T15:11:29.896Z,1015.45
2019-04-21T15:12:29.851Z,1015.43
2019-04-21T15:13:29.976Z,1015.43
2019-04-21T15:14:29.804Z,1015.47
2019-04-21T15:15:29.861Z,1015.44
2019-04-21T15:16:29.086Z,1015.45
2019-04-21T15:17:29.372Z,1015.41
2019-04-21T15:18:28.559Z,1015.38
2019-04-21T15:19:28.761Z,1015.36
2019-04-21T15:20:28.721Z,1015.37
2019-04-21T15:21:29.017Z,1015.37
2019-04-21T15:22:28.329Z,1015.32
2019-04-21T15:23:28.702Z,1015.34
2019-04-21T15:24:27.698Z,1015.38
2019-04-21T15:25:27.948Z,1015.43
2019-04-21T15:26:28.437Z,1015.35
2019-04-21T15:27:27.483Z,1015.34
2019-04-21T15:28:31.616Z,1015.40
2019-04-21T15:29:27.222Z,1015.30
2019-04-21T15:30:27.127Z,1015.33
2019-04-21T15:31:32.402Z,1015.28
2019-04-21T15:32:26.936Z,1015.31
2019-04-21T15:33:26.840Z,1015.30
2019-04-21T15:34:27.376Z,1015.30
2019-04-21T15:35:26.946Z,1015.30
2019-04-21T15:36:27.222Z,1015.26
2019-04-21T15:37:26.462Z,1015.27
2019-04-21T15:38:27.611Z,1015.29
2019-04-21T15:39:27.743Z,1015.20
2019-04-21T15:40:39.883Z,1015.23
2019-04-21T15:41:26.787Z,1015.25
2019-04-21T15:42:26.396Z,1015.22
2019-04-21T15:43:26.576Z,1015.20
2019-04-21T15:44:26.960Z,1015.16
2019-04-21T15:45:26.414Z,1015.14
2019-04-21T15:46:26.720Z,1015.13
2019-04-21T15:47:26.255Z,1015.12
2019-04-21T15:48:26.606Z,1015.13
2019-04-21T15:49:27.850Z,1015.11
2019-04-21T15:50:26.420Z,1015.10
2019-04-21T15:51:25.971Z,1015.09
2019-04-21T15:52:25.470Z,1015.05
2019-04-21T15:53:25.654Z,1015.07
2019-04-21T15:54:24.837Z,1015.07
2019-04-21T15:55:24.744Z,1015.04
2019-04-21T15:56:24.649Z,1015.07
2019-04-21T15:57:25.841Z,1015.04
2019-04-21T15:58:24.767Z,1015.07
2019-04-21T15:59:24.486Z,1015.02
2019-04-21T16:00:24.629Z,1015.04
2019-04-21T16:01:24.825Z,1014.97
2019-04-21T16:02:24.555Z,1014.98
2019-04-21T16:03:24.866Z,1014.98
2019-04-21T16:04:25.104Z,1014.98
2019-04-21T16:05:24.543Z,1014.96
2019-04-21T16:06:23.698Z,1014.92
2019-04-21T16:07:24.479Z,1014.93
2019-04-21T16:08:24.847Z,1014.91
2019-04-21T16:09:25.884Z,1014.93
2019-04-21T16:10:34.581Z,1014.92
2019-04-21T16:11:24.029Z,1014.91
2019-04-21T16:12:23.124Z,1014.89
2019-04-21T16:13:23.667Z,1014.88
2019-04-21T16:14:22.932Z,1014.86
2019-04-21T16:15:22.984Z,1014.88
2019-04-21T16:16:25.346Z,1014.86
2019-04-21T16:17:23.545Z,1014.82
2019-04-21T16:18:22.616Z,1014.82
2019-04-21T16:19:22.999Z,1014.82
2019-04-21T16:20:23.935Z,1014.82
2019-04-21T16:21:22.265Z,1014.78
2019-04-21T16:22:22.169Z,1014.77
2019-04-21T16:23:22.503Z,1014.80
2019-04-21T16:24:23.178Z,1014.78
2019-04-21T16:25:23.084Z,1014.77
2019-04-21T16:26:22.322Z,1014.73
2019-04-21T16:27:21.698Z,1014.75
2019-04-21T16:28:21.695Z,1014.75
2019-04-21T16:29:22.824Z,1014.70
2019-04-21T16:30:21.819Z,1014.68
2019-04-21T16:31:22.523Z,1014.68
2019-04-21T16:32:21.631Z,1014.67
2019-04-21T16:33:21.116Z,1014.67
2019-04-21T16:34:21.981Z,1014.71
2019-04-21T16:35:22.159Z,1014.67
2019-04-21T16:36:20.828Z,1014.67
2019-04-21T16:37:21.561Z,1014.65
2019-04-21T16:38:21.626Z,1014.60
2019-04-21T16:39:20.543Z,1014.60
2019-04-21T16:40:21.322Z,1014.61
2019-04-21T16:41:20.424Z,1014.58
2019-04-21T16:42:20.480Z,1014.60
2019-04-21T16:43:20.169Z,1014.56
2019-04-21T16:44:20.983Z,1014.58
2019-04-21T16:45:20.909Z,1014.60
2019-04-21T16:46:20.922Z,1014.62
2019-04-21T16:47:19.825Z,1014.56
2019-04-21T16:48:21.105Z,1014.58
2019-04-21T16:49:19.985Z,1014.59
2019-04-21T16:50:19.545Z,1014.56
2019-04-21T16:51:20.181Z,1014.54
2019-04-21T16:52:20.375Z,1014.56
2019-04-21T16:53:19.917Z,1014.59
2019-04-21T16:54:19.974Z,1014.55
2019-04-21T16:55:19.097Z,1014.54
2019-04-21T16:56:18.916Z,1014.58
2019-04-21T16:57:19.864Z,1014.56
2019-04-21T16:58:23.112Z,1014.53
2019-04-21T16:59:18.927Z,1014.61
2019-04-21T17:00:29.089Z,1014.53
2019-04-21T17:01:20.117Z,1014.52
2019-04-21T17:02:18.673Z,1014.51
2019-04-21T17:03:18.818Z,1014.51
2019-04-21T17:04:18.259Z,1014.46
2019-04-21T17:05:18.319Z,1014.50
2019-04-21T17:06:19.308Z,1014.44
2019-04-21T17:07:18.012Z,1014.46
2019-04-21T17:08:17.859Z,1014.47
2019-04-21T17:09:18.755Z,1014.41
2019-04-21T17:10:17.597Z,1014.46
2019-04-21T17:11:20.703Z,1014.41
2019-04-21T17:12:18.816Z,1014.40
2019-04-21T17:13:18.268Z,1014.41
2019-04-21T17:14:32.846Z,1014.40
2019-04-21T17:15:34.084Z,1014.38
2019-04-21T17:16:44.690Z,1014.38
2019-04-21T17:17:37.224Z,1014.34
2019-04-21T17:18:34.167Z,1014.35
2019-04-21T17:19:24.127Z,1014.35
2019-04-21T17:20:30.975Z,1014.30
2019-04-21T17:21:16.829Z,1014.29
2019-04-21T17:22:17.447Z,1014.34
2019-04-21T17:23:17.554Z,1014.31
2019-04-21T17:24:16.737Z,1014.35
2019-04-21T17:25:16.191Z,1014.35
2019-04-21T17:26:17.080Z,1014.32
2019-04-21T17:27:17.315Z,1014.35
2019-04-21T17:28:15.845Z,1014.33
2019-04-21T17:29:16.821Z,1014.32
2019-04-21T17:30:16.565Z,1014.34
2019-04-21T17:31:16.187Z,1014.35
2019-04-21T17:32:16.402Z,1014.35
2019-04-21T17:33:20.850Z,1014.33
2019-04-21T17:34:21.190Z,1014.31
2019-04-21T17:35:16.305Z,1014.33
2019-04-21T17:36:15.074Z,1014.32
2019-04-21T17:37:15.256Z,1014.31
2019-04-21T17:38:16.245Z,1014.31
2019-04-21T17:39:14.786Z,1014.31
2019-04-21T17:40:15.660Z,1014.31
2019-04-21T17:41:25.688Z,1014.26
2019-04-21T17:42:24.137Z,1014.29
2019-04-21T17:43:17.849Z,1014.26
2019-04-21T17:44:15.108Z,1014.32
2019-04-21T17:45:15.178Z,1014.30
2019-04-21T17:46:24.430Z,1014.32
2019-04-21T17:47:25.570Z,1014.30
2019-04-21T17:48:16.205Z,1014.30
2019-04-21T17:49:14.903Z,1014.31
2019-04-21T17:50:13.811Z,1014.33
2019-04-21T17:51:13.823Z,1014.31
2019-04-21T17:52:16.305Z,1014.31
2019-04-21T17:53:16.197Z,1014.31
2019-04-21T17:54:20.842Z,1014.26
2019-04-21T17:55:18.393Z,1014.27
2019-04-21T17:56:41.196Z,1014.27
2019-04-21T17:57:34.893Z,1014.23
2019-04-21T17:58:29.137Z,1014.25
2019-04-21T17:59:46.134Z,1014.26
2019-04-21T18:00:53.547Z,1014.23
2019-04-21T18:01:35.296Z,1014.22
2019-04-21T18:02:35.115Z,1014.21
2019-04-21T18:03:48.369Z,1014.23
2019-04-21T18:04:30.697Z,1014.25
2019-04-21T18:05:32.251Z,1014.23
2019-04-21T18:06:30.950Z,1014.26
2019-04-21T18:07:35.123Z,1014.21
2019-04-21T18:08:30.599Z,1014.22
2019-04-21T18:09:36.403Z,1014.19
2019-04-21T18:10:27.716Z,1014.20
2019-04-21T18:11:27.910Z,1014.22
2019-04-21T18:12:26.384Z,1014.22
2019-04-21T18:13:14.513Z,1014.22
2019-04-21T18:14:11.491Z,1014.22
2019-04-21T18:15:33.000Z,1014.23
2019-04-21T18:16:23.898Z,1014.26
2019-04-21T18:17:11.105Z,1014.26
2019-04-21T18:18:12.449Z,1014.25
2019-04-21T18:19:11.036Z,1014.24
2019-04-21T18:20:12.104Z,1014.24
2019-04-21T18:21:10.735Z,1014.31
2019-04-21T18:22:10.771Z,1014.29
2019-04-21T18:23:19.865Z,1014.31
2019-04-21T18:24:15.621Z,1014.29
2019-04-21T18:25:20.356Z,1014.32
2019-04-21T18:26:27.141Z,1014.35
2019-04-21T18:27:11.455Z,1014.31
2019-04-21T18:28:10.370Z,1014.34
2019-04-21T18:29:09.941Z,1014.35
2019-04-21T18:30:10.623Z,1014.35
2019-04-21T18:31:10.167Z,1014.32
2019-04-21T18:32:10.510Z,1014.35
2019-04-21T18:33:14.149Z,1014.33
2019-04-21T18:34:13.803Z,1014.30
2019-04-21T18:35:13.288Z,1014.28
2019-04-21T18:36:13.455Z,1014.31
2019-04-21T18:37:18.615Z,1014.37
2019-04-21T18:38:16.960Z,1014.31
2019-04-21T18:39:23.441Z,1014.34
2019-04-21T18:40:16.538Z,1014.32
2019-04-21T18:41:09.902Z,1014.33
2019-04-21T18:42:26.397Z,1014.34
2019-04-21T18:43:46.814Z,1014.31
2019-04-21T18:44:36.337Z,1014.37
2019-04-21T18:45:40.331Z,1014.36
2019-04-21T18:46:27.073Z,1014.36
2019-04-21T18:47:28.895Z,1014.34
2019-04-21T18:48:19.200Z,1014.40
2019-04-21T18:49:09.127Z,1014.39
2019-04-21T18:50:08.165Z,1014.36
2019-04-21T18:51:13.532Z,1014.39
2019-04-21T18:52:19.345Z,1014.40
2019-04-21T18:53:19.424Z,1014.44
2019-04-21T18:54:34.083Z,1014.49
2019-04-21T18:55:18.900Z,1014.49
2019-04-21T18:56:11.153Z,1014.46
2019-04-21T18:57:18.625Z,1014.52
2019-04-21T18:58:07.316Z,1014.48
2019-04-21T18:59:07.010Z,1014.48
2019-04-21T19:00:15.220Z,1014.53
2019-04-21T19:01:12.687Z,1014.50
2019-04-21T19:02:10.329Z,1014.52
2019-04-21T19:03:09.917Z,1014.51
2019-04-21T19:04:12.479Z,1014.54
2019-04-21T19:05:13.642Z,1014.54
2019-04-21T19:06:12.839Z,1014.52
2019-04-21T19:07:20.029Z,1014.55
2019-04-21T19:08:18.787Z,1014.59
2019-04-21T19:09:34.180Z,1014.59
2019-04-21T19:10:36.290Z,1014.59
2019-04-21T19:11:24.059Z,1014.56
2019-04-21T19:12:34.035Z,1014.55
2019-04-21T19:13:39.636Z,1014.57
2019-04-21T19:14:32.163Z,1014.54
2019-04-21T19:15:21.365Z,1014.58
2019-04-21T19:16:38.018Z,1014.58
2019-04-21T19:19:41.150Z,1014.59
2019-04-21T19:20:25.998Z,1014.56
2019-04-21T19:21:20.659Z,1014.60
2019-04-21T19:22:20.124Z,1014.60
2019-04-21T19:23:34.027Z,1014.58
2019-04-21T19:25:24.037Z,1014.60
2019-04-21T19:27:23.785Z,1014.56
2019-04-21T19:28:16.876Z,1014.55
2019-04-21T19:29:28.808Z,1014.57
2019-04-21T19:30:28.832Z,1014.55
2019-04-21T19:31:29.703Z,1014.55
2019-04-21T19:33:21.482Z,1014.56
2019-04-21T19:34:11.365Z,1014.51
2019-04-21T19:35:05.500Z,1014.52
2019-04-21T19:36:03.435Z,1014.54
2019-04-21T19:37:10.980Z,1014.55
2019-04-21T19:38:08.220Z,1014.55
2019-04-21T19:39:10.755Z,1014.56
2019-04-21T19:40:15.902Z,1014.54
2019-04-21T19:41:23.027Z,1014.54
2019-04-21T19:42:14.429Z,1014.51
2019-04-21T19:43:16.026Z,1014.55
2019-04-21T19:44:20.031Z,1014.52
2019-04-21T19:45:19.083Z,1014.58
2019-04-21T19:46:19.060Z,1014.54
2019-04-21T19:47:26.271Z,1014.54
2019-04-21T19:48:18.131Z,1014.52
2019-04-21T19:49:29.079Z,1014.54
2019-04-21T19:50:26.461Z,1014.53
2019-04-21T19:51:18.150Z,1014.54
2019-04-21T19:52:08.701Z,1014.53
2019-04-21T19:53:15.884Z,1014.54
2019-04-21T19:54:12.599Z,1014.51
2019-04-21T19:55:02.545Z,1014.52
2019-04-21T19:56:01.399Z,1014.48
2019-04-21T19:57:01.300Z,1014.51
2019-04-21T19:58:01.200Z,1014.51
2019-04-21T19:59:01.311Z,1014.59
2019-04-21T20:00:05.502Z,1014.51
2019-04-21T20:01:01.599Z,1014.53
2019-04-21T20:02:00.804Z,1014.52
2019-04-21T20:03:00.828Z,1014.56
2019-04-21T20:04:01.084Z,1014.57
2019-04-21T20:05:06.863Z,1014.58
2019-04-21T20:06:10.439Z,1014.55
2019-04-21T20:07:15.593Z,1014.56
2019-04-21T20:08:17.431Z,1014.56
2019-04-21T20:09:17.872Z,1014.56
2019-04-21T20:10:25.616Z,1014.57
2019-04-21T20:11:20.337Z,1014.54
2019-04-21T20:12:18.912Z,1014.53
2019-04-21T20:13:26.123Z,1014.54
2019-04-21T20:15:28.367Z,1014.52
2019-04-21T20:16:21.536Z,1014.52
2019-04-21T20:17:10.037Z,1014.48
2019-04-21T20:18:14.030Z,1014.51
2019-04-21T20:19:04.208Z,1014.49
2019-04-21T20:20:00.366Z,1014.55
2019-04-21T20:20:58.922Z,1014.48
2019-04-21T20:21:59.016Z,1014.51
2019-04-21T20:22:59.356Z,1014.53
2019-04-21T20:24:06.094Z,1014.51
2019-04-21T20:25:04.720Z,1014.51
2019-04-21T20:26:02.373Z,1014.49
2019-04-21T20:27:05.277Z,1014.50
2019-04-21T20:28:03.707Z,1014.51
2019-04-21T20:29:11.175Z,1014.51
2019-04-21T20:30:14.133Z,1014.48
2019-04-21T20:31:27.881Z,1014.48
2019-04-21T20:32:20.205Z,1014.50
2019-04-21T20:33:33.448Z,1014.54
2019-04-21T20:34:18.020Z,1014.51
2019-04-21T20:35:17.092Z,1014.47
2019-04-21T20:36:15.014Z,1014.47
2019-04-21T20:37:15.058Z,1014.46
2019-04-21T20:38:12.341Z,1014.47
2019-04-21T20:39:05.791Z,1014.46
2019-04-21T20:40:02.293Z,1014.47
2019-04-21T20:41:03.414Z,1014.46
2019-04-21T20:42:12.639Z,1014.47
2019-04-21T20:43:17.699Z,1014.47
2019-04-21T20:44:17.200Z,1014.49
2019-04-21T20:45:28.872Z,1014.50
2019-04-21T20:46:12.350Z,1014.53
2019-04-21T20:47:07.427Z,1014.51
2019-04-21T20:48:05.941Z,1014.48
2019-04-21T20:49:08.389Z,1014.49
2019-04-21T20:50:09.486Z,1014.52
2019-04-21T20:51:14.888Z,1014.50
2019-04-21T20:52:22.651Z,1014.53
2019-04-21T20:53:11.096Z,1014.54
2019-04-21T20:54:15.762Z,1014.52
2019-04-21T20:55:07.489Z,1014.52
2019-04-21T20:56:08.554Z,1014.51
2019-04-21T20:57:15.020Z,1014.52
2019-04-21T20:58:05.701Z,1014.49
2019-04-21T20:59:13.863Z,1014.51
2019-04-21T21:00:16.826Z,1014.48
2019-04-21T21:01:25.445Z,1014.50
2019-04-21T21:02:10.238Z,1014.49
2019-04-21T21:03:11.981Z,1014.49
2019-04-21T21:04:06.406Z,1014.44
2019-04-21T21:05:04.962Z,1014.44
2019-04-21T21:06:08.089Z,1014.45
2019-04-21T21:07:16.161Z,1014.46
2019-04-21T21:08:18.031Z,1014.49
2019-04-21T21:09:10.316Z,1014.46
2019-04-21T21:10:10.652Z,1014.47
2019-04-21T21:11:07.046Z,1014.45
2019-04-21T21:12:22.269Z,1014.48
2019-04-21T21:13:24.299Z,1014.45
2019-04-21T21:14:11.361Z,1014.45
2019-04-21T21:15:03.958Z,1014.43
2019-04-21T21:16:13.966Z,1014.45
2019-04-21T21:17:19.656Z,1014.45
2019-04-21T21:18:16.071Z,1014.43
2019-04-21T21:19:18.646Z,1014.44
2019-04-21T21:20:14.338Z,1014.42
2019-04-21T21:21:11.047Z,1014.42
2019-04-21T21:22:03.945Z,1014.42
2019-04-21T21:23:05.773Z,1014.45
2019-04-21T21:24:11.657Z,1014.44
2019-04-21T21:25:10.267Z,1014.44
2019-04-21T21:26:18.458Z,1014.39
2019-04-21T21:27:09.164Z,1014.40
2019-04-21T21:28:02.985Z,1014.44
2019-04-21T21:29:03.617Z,1014.46
2019-04-21T21:30:10.038Z,1014.41
2019-04-21T21:31:09.659Z,1014.40
2019-04-21T21:32:16.793Z,1014.44
2019-04-21T21:33:11.412Z,1014.43
2019-04-21T21:34:11.941Z,1014.42
2019-04-21T21:35:10.860Z,1014.44
2019-04-21T21:36:10.703Z,1014.40
2019-04-21T21:37:21.862Z,1014.43
2019-04-21T21:38:06.758Z,1014.41
2019-04-21T21:39:06.214Z,1014.41
2019-04-21T21:40:11.439Z,1014.42
2019-04-21T21:41:01.297Z,1014.44
2019-04-21T21:41:57.623Z,1014.40
2019-04-21T21:42:51.179Z,1014.43
2019-04-21T21:43:58.113Z,1014.42
2019-04-21T21:45:00.436Z,1014.39
2019-04-21T21:45:55.579Z,1014.45
2019-04-21T21:47:04.269Z,1014.43
2019-04-21T21:48:04.539Z,1014.42
2019-04-21T21:49:02.045Z,1014.41